Time;durP1;ratioP1;P1;durP2;ratioP2;P2;SDS_P1;SDS_P2;PMS_P1;PMS_P2;Temp;Humidity;BMP_temperature;BMP_pressure;BME280_temperature;BME280_humidity;BME280_pressure;Samples;Min_cycle;Max_cycle;Signal;HPM_P1;HPM_P2
2023/06/24 00:01:59;;;;;;;4.80;4.13;;;21.60;99.90;;;;;;5012419;28;21148;-79
2023/06/24 00:04:24;;;;;;;6.83;5.00;;;21.60;99.90;;;;;;5034174;28;20308;-78
2023/06/24 00:06:52;;;;;;;8.63;3.90;;;21.50;99.90;;;;;;5037479;28;20184;-78
2023/06/24 00:09:18;;;;;;;5.50;4.33;;;21.50;99.90;;;;;;5011105;28;20269;-78
2023/06/24 00:11:44;;;;;;;6.20;4.07;;;21.50;99.90;;;;;;5025386;28;20604;-78
2023/06/24 00:14:10;;;;;;;4.90;3.87;;;21.50;99.90;;;;;;5011601;28;20576;-77
2023/06/24 00:16:36;;;;;;;6.40;3.63;;;21.50;99.90;;;;;;5016522;28;20684;-79
2023/06/24 00:19:02;;;;;;;5.20;3.90;;;21.50;99.90;;;;;;5032629;28;20658;-78
2023/06/24 00:21:30;;;;;;;4.00;3.30;;;21.40;99.90;;;;;;5013733;28;20986;-80
2023/06/24 00:24:02;;;;;;;4.90;4.47;;;21.40;99.90;;;;;;5014794;28;20202;-80
2023/06/24 00:26:28;;;;;;;5.23;4.70;;;21.40;99.90;;;;;;5033749;28;20584;-80
2023/06/24 00:28:53;;;;;;;5.20;4.17;;;21.40;99.90;;;;;;4997777;28;20616;-79
2023/06/24 00:31:20;;;;;;;6.30;5.70;;;21.40;99.90;;;;;;5014421;28;20189;-80
2023/06/24 00:33:49;;;;;;;6.20;4.77;;;21.30;99.90;;;;;;5021504;28;20177;-80
2023/06/24 00:36:16;;;;;;;6.83;5.47;;;21.30;99.90;;;;;;5035808;28;20588;-80
2023/06/24 00:38:42;;;;;;;5.13;4.60;;;21.30;99.90;;;;;;4997681;28;21184;-80
2023/06/24 00:41:08;;;;;;;5.97;5.37;;;21.30;99.90;;;;;;5034201;28;20612;-80
2023/06/24 00:43:34;;;;;;;6.10;5.00;;;21.30;99.90;;;;;;5012336;28;20233;-80
2023/06/24 00:46:02;;;;;;;5.83;4.90;;;21.30;99.90;;;;;;5014460;28;20248;-80
2023/06/24 00:48:28;;;;;;;6.67;5.17;;;21.30;99.90;;;;;;5032130;28;20607;-80
2023/06/24 00:50:58;;;;;;;6.03;5.47;;;21.20;99.90;;;;;;5013637;28;20620;-79
2023/06/24 00:53:26;;;;;;;6.60;5.90;;;21.20;99.90;;;;;;5014085;28;21018;-79
2023/06/24 00:55:54;;;;;;;5.50;5.00;;;21.20;99.90;;;;;;5014171;28;20592;-79
2023/06/24 00:58:20;;;;;;;5.50;4.97;;;21.20;99.90;;;;;;5013816;28;21180;-79
2023/06/24 01:00:48;;;;;;;9.13;6.07;;;21.20;99.90;;;;;;4996752;28;20577;-79
2023/06/24 01:03:14;;;;;;;6.33;5.10;;;21.10;99.90;;;;;;5031180;28;20674;-79
2023/06/24 01:05:49;;;;;;;5.43;4.93;;;21.10;99.90;;;;;;5013353;28;20592;-79
2023/06/24 01:08:15;;;;;;;5.80;5.20;;;21.10;99.90;;;;;;4997388;28;20235;-79
2023/06/24 01:10:45;;;;;;;6.30;5.10;;;21.10;99.90;;;;;;5013016;28;20584;-79
2023/06/24 01:13:11;;;;;;;6.87;5.63;;;21.10;99.90;;;;;;5031479;28;20587;-79
2023/06/24 01:15:37;;;;;;;4.90;4.40;;;21.00;99.90;;;;;;5005977;28;20596;-79
2023/06/24 01:18:08;;;;;;;5.60;5.00;;;21.00;99.90;;;;;;5031094;28;20571;-79
2023/06/24 01:20:52;;;;;;;6.03;5.07;;;21.00;99.90;;;;;;4980956;28;20580;-79
2023/06/24 01:23:42;;;;;;;5.30;4.80;;;21.00;99.90;;;;;;4996221;28;20632;-79
2023/06/24 01:26:18;;;;;;;5.60;5.10;;;21.00;99.90;;;;;;4987545;28;20596;-79
2023/06/24 01:29:13;;;;;;;6.10;5.07;;;21.00;99.90;;;;;;4978230;28;20634;-80
2023/06/24 01:31:59;;;;;;;4.90;4.40;;;21.00;99.90;;;;;;4995718;28;20621;-80
2023/06/24 01:34:26;;;;;;;5.70;5.10;;;21.00;99.90;;;;;;4997133;28;20585;-78
2023/06/24 01:37:18;;;;;;;4.87;4.27;;;20.90;99.90;;;;;;5034555;28;20595;-79
2023/06/24 01:39:49;;;;;;;6.53;5.60;;;20.90;99.90;;;;;;5001071;28;21156;-79
2023/06/24 01:42:18;;;;;;;6.73;5.20;;;20.90;99.90;;;;;;5033269;28;20568;-80
2023/06/24 01:44:47;;;;;;;5.80;5.17;;;20.90;99.90;;;;;;5015593;28;20635;-80
2023/06/24 01:47:16;;;;;;;7.03;6.33;;;20.90;99.90;;;;;;4999894;28;20593;-79
2023/06/24 01:49:45;;;;;;;6.03;5.43;;;20.90;99.90;;;;;;5015997;28;21187;-79
2023/06/24 01:52:13;;;;;;;7.37;6.70;;;20.90;99.90;;;;;;5034337;28;20607;-79
2023/06/24 01:54:41;;;;;;;7.40;6.70;;;20.90;99.90;;;;;;5002402;28;20975;-79
2023/06/24 01:57:09;;;;;;;7.10;5.80;;;20.90;99.90;;;;;;5015411;28;20603;-79
2023/06/24 01:59:40;;;;;;;6.00;5.40;;;20.90;99.90;;;;;;4999217;28;20620;-78
2023/06/24 02:02:08;;;;;;;7.20;6.50;;;20.90;99.90;;;;;;4997512;28;20607;-79
2023/06/24 02:04:35;;;;;;;7.83;7.03;;;20.90;99.90;;;;;;5015589;28;20638;-79
2023/06/24 02:07:03;;;;;;;6.60;6.00;;;20.90;99.90;;;;;;5032842;28;20735;-79
2023/06/24 02:09:31;;;;;;;7.70;6.70;;;20.80;99.90;;;;;;5015461;28;20710;-79
2023/06/24 02:11:59;;;;;;;7.83;6.80;;;20.80;99.90;;;;;;5014157;28;21001;-78
2023/06/24 02:14:27;;;;;;;7.43;6.27;;;20.80;99.90;;;;;;4982730;28;20592;-79
2023/06/24 02:16:57;;;;;;;7.27;6.57;;;20.80;99.90;;;;;;4998812;28;20592;-79
2023/06/24 02:19:29;;;;;;;8.00;7.20;;;20.70;99.90;;;;;;5033037;28;20659;-79
2023/06/24 02:22:01;;;;;;;8.37;7.50;;;20.70;99.90;;;;;;5014620;28;20583;-80
2023/06/24 02:24:28;;;;;;;8.10;6.33;;;20.70;99.90;;;;;;4982282;28;20654;-80
2023/06/24 02:26:57;;;;;;;7.83;6.30;;;20.70;99.90;;;;;;5033104;28;20652;-79
2023/06/24 02:29:27;;;;;;;9.10;7.30;;;20.60;99.90;;;;;;5004848;28;20607;-78
2023/06/24 02:31:53;;;;;;;6.43;5.83;;;20.60;99.90;;;;;;4998966;28;20595;-79
2023/06/24 02:34:20;;;;;;;8.50;7.47;;;20.60;99.90;;;;;;4997489;28;20615;-78
2023/06/24 02:36:46;;;;;;;7.43;6.73;;;20.60;99.90;;;;;;5032555;28;20580;-78
2023/06/24 02:39:11;;;;;;;8.17;6.30;;;20.60;99.90;;;;;;4998834;28;20666;-77
2023/06/24 02:41:37;;;;;;;7.07;6.37;;;20.50;99.90;;;;;;4997866;28;20186;-77
2023/06/24 02:44:03;;;;;;;6.47;5.87;;;20.50;99.90;;;;;;5014483;28;20611;-77
2023/06/24 02:46:32;;;;;;;7.60;6.50;;;20.50;99.90;;;;;;5014698;28;20178;-77
2023/06/24 02:48:58;;;;;;;7.33;6.63;;;20.50;99.90;;;;;;4997069;28;20360;-77
2023/06/24 02:51:26;;;;;;;7.50;5.80;;;20.40;99.90;;;;;;4996959;28;20576;-77
2023/06/24 02:53:52;;;;;;;6.97;6.27;;;20.40;99.90;;;;;;4998006;28;20628;-77
2023/06/24 02:56:26;;;;;;;6.80;6.10;;;20.40;99.90;;;;;;5014104;28;20596;-77
2023/06/24 02:58:53;;;;;;;6.50;5.53;;;20.30;99.90;;;;;;4998263;28;20624;-77
2023/06/24 03:01:25;;;;;;;14.30;5.37;;;20.30;99.90;;;;;;4996998;28;20615;-77
2023/06/24 03:03:56;;;;;;;7.17;6.43;;;20.30;99.90;;;;;;4998387;28;20628;-77
2023/06/24 03:06:23;;;;;;;7.37;5.97;;;20.20;99.90;;;;;;5018001;28;20585;-77
2023/06/24 03:08:50;;;;;;;8.77;6.93;;;20.20;99.90;;;;;;4997830;28;21066;-77
2023/06/24 03:11:18;;;;;;;6.37;5.77;;;20.20;99.90;;;;;;4996982;28;20596;-77
2023/06/24 03:13:44;;;;;;;7.70;7.00;;;20.20;99.90;;;;;;5014000;28;20591;-77
2023/06/24 03:16:14;;;;;;;7.03;6.33;;;20.10;99.90;;;;;;5014271;28;20264;-77
2023/06/24 03:18:56;;;;;;;7.20;6.33;;;20.10;99.90;;;;;;4983424;28;20635;-77
2023/06/24 03:21:28;;;;;;;6.53;5.83;;;20.10;99.90;;;;;;5013253;28;21166;-77
2023/06/24 03:23:54;;;;;;;6.43;5.60;;;20.10;99.90;;;;;;4997041;28;20632;-77
2023/06/24 03:26:20;;;;;;;7.60;6.30;;;20.00;99.90;;;;;;4997961;28;20938;-77
2023/06/24 03:28:46;;;;;;;6.60;5.73;;;20.00;99.90;;;;;;4997122;28;20616;-77
2023/06/24 03:31:15;;;;;;;5.80;5.23;;;20.00;99.90;;;;;;4996282;28;20779;-77
2023/06/24 03:33:45;;;;;;;7.43;6.67;;;20.00;99.90;;;;;;5010300;28;20700;-77
2023/06/24 03:36:12;;;;;;;8.17;6.50;;;20.00;99.90;;;;;;4977821;28;20597;-76
2023/06/24 03:38:38;;;;;;;6.83;6.23;;;19.90;99.90;;;;;;4977778;28;20631;-77
2023/06/24 03:41:05;;;;;;;6.60;6.00;;;19.90;99.90;;;;;;4978989;28;20593;-77
2023/06/24 03:43:32;;;;;;;7.90;6.77;;;19.90;99.90;;;;;;4980749;28;20655;-77
2023/06/24 03:46:00;;;;;;;14.60;7.23;;;19.90;99.90;;;;;;4977454;28;20680;-77
2023/06/24 03:48:27;;;;;;;7.60;6.80;;;19.90;99.90;;;;;;4994027;28;20597;-76
2023/06/24 03:50:53;;;;;;;6.60;5.90;;;19.80;99.90;;;;;;4992880;28;20932;-77
2023/06/24 03:53:21;;;;;;;6.97;6.27;;;19.80;99.90;;;;;;4977387;28;20592;-77
2023/06/24 03:55:46;;;;;;;6.73;6.13;;;19.80;99.90;;;;;;4993377;28;20589;-77
2023/06/24 03:58:13;;;;;;;6.10;5.23;;;19.80;99.90;;;;;;4982762;28;20232;-77
2023/06/24 04:00:40;;;;;;;5.70;5.20;;;19.80;99.90;;;;;;4995799;28;20580;-77
2023/06/24 04:03:07;;;;;;;6.87;6.23;;;19.80;99.90;;;;;;5013138;28;20589;-76
2023/06/24 04:05:33;;;;;;;6.60;5.70;;;19.80;99.90;;;;;;4996873;28;20667;-77
2023/06/24 04:07:59;;;;;;;7.47;6.27;;;19.80;99.90;;;;;;4996458;28;20625;-77
2023/06/24 04:10:25;;;;;;;7.17;5.80;;;19.90;99.90;;;;;;4980118;28;20584;-77
2023/06/24 04:12:51;;;;;;;6.80;6.10;;;19.90;99.90;;;;;;4995589;28;21029;-77
2023/06/24 04:15:17;;;;;;;5.70;5.17;;;19.90;99.90;;;;;;4980466;28;20588;-77
2023/06/24 04:17:42;;;;;;;6.50;5.80;;;20.00;99.90;;;;;;5000095;28;20228;-77
2023/06/24 04:20:09;;;;;;;7.70;6.27;;;20.00;99.90;;;;;;5014000;28;20188;-77
2023/06/24 04:22:40;;;;;;;6.57;5.97;;;20.00;99.90;;;;;;4995886;28;20619;-78
2023/06/24 04:25:06;;;;;;;9.20;7.30;;;20.10;99.90;;;;;;4996930;28;20651;-77
2023/06/24 04:27:33;;;;;;;7.33;6.57;;;20.10;99.90;;;;;;5014456;28;20654;-77
2023/06/24 04:30:00;;;;;;;8.57;7.40;;;20.10;99.90;;;;;;5021690;28;20607;-77
2023/06/24 04:32:26;;;;;;;7.00;6.17;;;20.20;99.90;;;;;;5012607;28;20634;-78
2023/06/24 04:34:53;;;;;;;13.60;7.17;;;20.30;99.90;;;;;;5030015;28;20619;-76
2023/06/24 04:37:19;;;;;;;7.10;6.40;;;20.40;99.90;;;;;;4996045;28;20173;-76
2023/06/24 04:39:48;;;;;;;6.80;6.20;;;20.40;99.90;;;;;;4995481;28;21155;-76
2023/06/24 04:42:14;;;;;;;6.27;5.70;;;20.50;99.90;;;;;;5011504;28;20949;-76
2023/06/24 04:44:40;;;;;;;6.10;5.50;;;20.50;99.90;;;;;;5012183;28;20636;-76
2023/06/24 04:47:06;;;;;;;5.50;4.90;;;20.60;99.90;;;;;;5012516;28;20595;-76
2023/06/24 04:49:31;;;;;;;6.20;5.70;;;20.60;99.90;;;;;;5029836;28;20297;-76
2023/06/24 04:52:00;;;;;;;7.83;5.90;;;20.60;99.90;;;;;;5029651;28;20311;-77
2023/06/24 04:54:27;;;;;;;6.87;6.17;;;20.70;99.90;;;;;;5000065;28;20268;-77
2023/06/24 04:56:55;;;;;;;7.27;5.90;;;20.70;99.90;;;;;;5012627;28;20655;-77
2023/06/24 04:59:21;;;;;;;10.40;5.90;;;20.80;99.90;;;;;;5012556;28;20628;-77
2023/06/24 05:01:47;;;;;;;6.03;5.40;;;20.90;99.90;;;;;;5011081;28;20603;-77
2023/06/24 05:04:12;;;;;;;5.97;5.40;;;21.00;99.90;;;;;;5030052;28;21018;-77
2023/06/24 05:06:38;;;;;;;6.27;5.67;;;21.00;99.90;;;;;;5029749;28;20256;-77
2023/06/24 05:09:04;;;;;;;7.60;5.97;;;21.10;99.90;;;;;;5030047;28;20209;-77
2023/06/24 05:11:30;;;;;;;7.40;6.70;;;21.20;99.90;;;;;;5010448;28;20173;-77
2023/06/24 05:13:56;;;;;;;7.00;6.30;;;21.30;99.90;;;;;;4980155;28;20675;-77
2023/06/24 05:16:23;;;;;;;5.73;5.23;;;21.40;99.90;;;;;;5057387;22;20655;-75
2023/06/24 05:18:49;;;;;;;5.70;5.20;;;21.50;99.90;;;;;;5031465;28;20596;-76
2023/06/24 05:21:15;;;;;;;6.23;5.40;;;21.70;99.90;;;;;;5049266;28;20933;-76
2023/06/24 05:23:41;;;;;;;6.90;6.30;;;21.80;99.90;;;;;;5028191;28;20648;-75
2023/06/24 05:26:07;;;;;;;6.90;5.70;;;21.90;99.90;;;;;;5036440;28;20640;-75
2023/06/24 05:28:32;;;;;;;8.60;6.07;;;22.00;99.90;;;;;;5011665;28;20633;-75
2023/06/24 05:31:01;;;;;;;6.07;5.50;;;22.10;99.90;;;;;;4995431;28;20176;-76
2023/06/24 05:33:27;;;;;;;7.13;5.60;;;22.10;99.90;;;;;;5011188;28;20205;-76
2023/06/24 05:35:53;;;;;;;6.13;4.90;;;22.10;99.90;;;;;;5011674;28;20655;-76
2023/06/24 05:38:18;;;;;;;6.97;6.00;;;22.20;99.90;;;;;;5029381;28;20205;-76
2023/06/24 05:40:44;;;;;;;7.97;6.30;;;22.30;99.90;;;;;;4994866;28;21021;-74
2023/06/24 05:43:10;;;;;;;7.10;5.40;;;22.40;99.90;;;;;;4995316;28;20181;-76
2023/06/24 05:45:36;;;;;;;5.77;5.07;;;22.50;99.90;;;;;;4992293;28;20285;-75
2023/06/24 05:48:03;;;;;;;5.73;5.23;;;22.70;99.90;;;;;;4997800;28;20672;-76
2023/06/24 05:50:29;;;;;;;5.83;5.20;;;23.00;99.90;;;;;;4992014;28;20679;-76
2023/06/24 05:52:54;;;;;;;5.53;5.07;;;23.30;99.90;;;;;;4992617;28;20569;-76
2023/06/24 05:55:20;;;;;;;4.80;4.30;;;23.80;99.90;;;;;;5009379;28;20195;-75
2023/06/24 05:57:47;;;;;;;5.23;4.63;;;24.50;99.90;;;;;;4981929;28;20215;-75
2023/06/24 06:00:13;;;;;;;7.10;4.70;;;25.30;99.90;;;;;;5003310;28;20165;-76
2023/06/24 06:02:40;;;;;;;5.60;5.00;;;26.30;99.90;;;;;;5011040;28;20593;-76
2023/06/24 06:05:06;;;;;;;5.20;4.20;;;27.20;99.90;;;;;;5011984;28;21000;-75
2023/06/24 06:07:32;;;;;;;4.17;3.50;;;28.10;99.90;;;;;;5044676;28;20174;-75
2023/06/24 06:09:58;;;;;;;4.30;3.90;;;29.00;99.90;;;;;;5012237;28;20593;-76
2023/06/24 06:12:23;;;;;;;4.40;3.60;;;29.90;99.90;;;;;;5011196;28;20167;-75
2023/06/24 06:14:49;;;;;;;5.20;4.07;;;30.70;99.90;;;;;;5029598;28;20186;-76
2023/06/24 06:17:15;;;;;;;4.17;3.47;;;31.50;99.90;;;;;;5011285;28;20676;-75
2023/06/24 06:19:41;;;;;;;4.40;3.70;;;32.20;99.90;;;;;;5029699;28;20178;-75
2023/06/24 06:22:07;;;;;;;4.40;3.50;;;33.00;99.90;;;;;;5029807;28;20580;-76
2023/06/24 06:24:33;;;;;;;5.40;4.23;;;33.80;99.90;;;;;;5032844;28;20631;-76
2023/06/24 06:26:59;;;;;;;4.40;4.00;;;34.50;99.90;;;;;;5015383;28;20631;-76
2023/06/24 06:29:25;;;;;;;5.30;4.00;;;34.90;99.90;;;;;;4998750;28;20584;-75
2023/06/24 06:31:52;;;;;;;4.40;4.00;;;35.10;99.90;;;;;;4998413;28;20177;-77
2023/06/24 06:34:18;;;;;;;3.47;3.17;;;35.40;99.60;;;;;;5015596;28;20590;-75
2023/06/24 06:36:44;;;;;;;8.03;4.20;;;35.80;98.40;;;;;;5015270;28;21186;-75
2023/06/24 06:39:09;;;;;;;4.30;3.40;;;36.20;97.00;;;;;;4999431;28;20189;-75
2023/06/24 06:41:35;;;;;;;4.40;3.57;;;36.60;95.60;;;;;;5032047;28;20170;-76
2023/06/24 06:44:01;;;;;;;4.00;3.20;;;37.00;94.00;;;;;;5015235;28;20739;-75
2023/06/24 06:46:27;;;;;;;4.03;3.60;;;37.40;92.80;;;;;;5012883;28;20608;-75
2023/06/24 06:48:53;;;;;;;4.80;3.73;;;37.60;91.00;;;;;;5013873;28;20185;-76
2023/06/24 06:51:20;;;;;;;7.80;3.60;;;37.80;89.00;;;;;;5014149;28;20638;-76
2023/06/24 06:53:45;;;;;;;4.63;3.60;;;38.10;86.70;;;;;;5032771;28;21000;-75
2023/06/24 06:56:24;;;;;;;3.70;3.40;;;38.30;83.20;;;;;;5014250;28;20726;-74
2023/06/24 06:58:50;;;;;;;6.50;3.10;;;38.20;79.30;;;;;;5032579;28;20261;-75
2023/06/24 07:01:17;;;;;;;4.73;3.33;;;38.40;77.30;;;;;;5013339;28;20679;-83
2023/06/24 07:03:42;;;;;;;3.97;2.53;;;38.60;75.70;;;;;;5031897;28;20639;-75
2023/06/24 07:06:08;;;;;;;7.07;3.10;;;38.50;73.40;;;;;;5014203;28;21037;-73
2023/06/24 07:08:34;;;;;;;5.30;3.47;;;38.50;72.30;;;;;;5031665;28;20170;-74
2023/06/24 07:10:59;;;;;;;6.07;3.03;;;38.70;70.90;;;;;;5013833;28;20170;-74
2023/06/24 07:13:25;;;;;;;3.97;2.80;;;38.80;69.70;;;;;;4997118;28;20174;-74
2023/06/24 07:15:51;;;;;;;3.53;3.07;;;39.00;68.60;;;;;;5013306;28;20248;-75
2023/06/24 07:18:16;;;;;;;3.07;2.50;;;38.90;66.00;;;;;;5013656;28;20170;-74
2023/06/24 07:20:42;;;;;;;4.13;2.40;;;38.70;64.30;;;;;;5014058;28;20189;-75
2023/06/24 07:23:08;;;;;;;4.00;2.70;;;38.40;62.80;;;;;;5013674;28;20174;-75
2023/06/24 07:25:34;;;;;;;3.33;2.23;;;38.40;62.50;;;;;;5014114;28;20280;-74
2023/06/24 07:28:00;;;;;;;4.33;2.13;;;38.60;62.70;;;;;;5013967;28;20208;-75
2023/06/24 07:30:26;;;;;;;3.27;2.53;;;38.90;61.60;;;;;;4997053;28;20612;-75
2023/06/24 07:32:52;;;;;;;2.73;1.80;;;39.20;60.30;;;;;;5013815;28;20708;-74
2023/06/24 07:35:18;;;;;;;3.13;2.83;;;39.40;59.60;;;;;;5030854;28;20636;-75
2023/06/24 07:37:45;;;;;;;4.00;2.00;;;39.90;58.40;;;;;;5032196;28;20178;-74
2023/06/24 07:40:11;;;;;;;2.67;1.90;;;40.10;57.60;;;;;;5014090;28;21107;-74
2023/06/24 07:42:37;;;;;;;2.77;2.10;;;40.30;56.70;;;;;;5013710;28;20576;-76
2023/06/24 07:45:03;;;;;;;3.33;2.50;;;40.50;56.30;;;;;;5014080;28;21221;-75
2023/06/24 07:47:29;;;;;;;3.30;2.53;;;40.70;55.40;;;;;;5014515;28;20522;-74
2023/06/24 07:49:54;;;;;;;3.80;2.83;;;40.90;54.80;;;;;;5031860;28;20560;-75
2023/06/24 07:52:20;;;;;;;3.00;2.40;;;41.10;53.90;;;;;;4993338;28;20260;-75
2023/06/24 07:54:46;;;;;;;3.77;3.07;;;41.30;53.20;;;;;;5032135;28;20209;-76
2023/06/24 07:57:11;;;;;;;4.90;2.70;;;41.50;52.70;;;;;;5013662;28;20577;-76
2023/06/24 07:59:37;;;;;;;3.13;2.43;;;41.70;52.10;;;;;;5014159;28;20173;-74
2023/06/24 08:02:03;;;;;;;3.53;2.17;;;42.00;51.40;;;;;;5014391;28;20174;-76
2023/06/24 08:04:29;;;;;;;2.97;2.60;;;42.10;50.70;;;;;;5031500;28;20227;-76
2023/06/24 08:06:54;;;;;;;4.37;3.20;;;42.40;50.40;;;;;;5012992;28;20197;-76
2023/06/24 08:09:20;;;;;;;4.53;2.80;;;42.50;49.60;;;;;;5030898;28;20235;-76
2023/06/24 08:11:46;;;;;;;3.10;2.80;;;42.80;49.00;;;;;;4995590;28;20256;-76
2023/06/24 08:14:11;;;;;;;3.73;2.53;;;43.00;48.20;;;;;;5029981;28;20259;-75
2023/06/24 08:16:37;;;;;;;5.00;2.73;;;43.10;47.50;;;;;;5012799;28;20304;-75
2023/06/24 08:19:03;;;;;;;3.83;2.87;;;43.20;46.80;;;;;;5030388;28;20184;-75
2023/06/24 08:21:29;;;;;;;2.73;2.00;;;43.30;46.50;;;;;;5012647;28;20183;-75
2023/06/24 08:23:55;;;;;;;4.73;3.10;;;43.40;46.20;;;;;;5012927;28;20178;-75
2023/06/24 08:26:21;;;;;;;4.77;2.50;;;43.60;45.60;;;;;;5013145;28;20623;-75
2023/06/24 08:28:47;;;;;;;3.30;3.00;;;43.70;45.10;;;;;;4996545;28;20584;-75
2023/06/24 08:31:13;;;;;;;3.87;2.90;;;43.90;44.90;;;;;;5012628;28;20181;-75
2023/06/24 08:33:45;;;;;;;4.23;3.13;;;44.00;44.20;;;;;;5001690;28;20629;-75
2023/06/24 08:36:11;;;;;;;3.53;2.40;;;44.20;43.50;;;;;;5003327;28;20703;-75
2023/06/24 08:38:37;;;;;;;4.00;2.40;;;44.30;43.10;;;;;;5025914;28;20584;-75
2023/06/24 08:41:03;;;;;;;3.07;2.23;;;44.40;43.10;;;;;;5021790;28;20591;-74
2023/06/24 08:43:28;;;;;;;2.80;2.30;;;44.50;43.10;;;;;;5020199;28;20254;-74
2023/06/24 08:45:54;;;;;;;3.17;2.37;;;44.60;42.40;;;;;;5010157;28;20198;-75
2023/06/24 08:48:20;;;;;;;3.57;2.23;;;44.80;42.30;;;;;;4993406;28;20178;-75
2023/06/24 08:50:52;;;;;;;2.73;2.10;;;44.90;41.70;;;;;;5010312;28;20597;-75
2023/06/24 08:53:20;;;;;;;5.37;2.43;;;45.00;41.10;;;;;;4982352;28;20182;-75
2023/06/24 08:55:46;;;;;;;2.60;2.37;;;45.00;40.60;;;;;;5015700;28;20605;-75
2023/06/24 08:58:16;;;;;;;4.13;1.97;;;45.20;40.30;;;;;;4981923;28;20602;-75
2023/06/24 09:00:43;;;;;;;3.90;2.80;;;45.20;40.30;;;;;;5009410;28;21123;-75
2023/06/24 09:03:09;;;;;;;2.97;2.67;;;45.40;39.60;;;;;;5008233;28;20592;-75
2023/06/24 09:05:34;;;;;;;3.17;2.50;;;45.40;39.20;;;;;;5001212;28;20674;-75
2023/06/24 09:08:00;;;;;;;4.50;2.37;;;45.40;38.90;;;;;;5020926;28;20186;-75
2023/06/24 09:10:37;;;;;;;3.47;2.50;;;45.40;38.60;;;;;;5024810;28;20181;-75
2023/06/24 09:13:05;;;;;;;3.47;2.23;;;45.40;38.00;;;;;;5008661;28;20576;-75
2023/06/24 09:15:37;;;;;;;5.07;2.67;;;45.40;38.10;;;;;;5018526;28;20676;-75
2023/06/24 09:18:04;;;;;;;4.30;2.23;;;45.50;38.00;;;;;;5003558;28;20585;-76
2023/06/24 09:20:31;;;;;;;4.40;2.63;;;45.60;37.80;;;;;;5037301;28;20584;-75
2023/06/24 09:23:05;;;;;;;2.63;1.87;;;45.70;37.60;;;;;;4984429;28;20595;-75
2023/06/24 09:25:30;;;;;;;3.13;2.10;;;45.80;37.30;;;;;;5007791;28;20616;-75
2023/06/24 09:28:00;;;;;;;3.80;2.60;;;45.80;37.20;;;;;;5027129;28;21093;-75
2023/06/24 09:30:27;;;;;;;2.93;2.30;;;45.80;36.80;;;;;;5017595;28;20260;-76
2023/06/24 09:32:53;;;;;;;2.20;1.60;;;45.90;36.90;;;;;;5015007;28;21171;-75
2023/06/24 09:35:24;;;;;;;2.87;2.17;;;45.90;36.80;;;;;;5019950;28;20291;-75
2023/06/24 09:37:55;;;;;;;2.53;1.77;;;46.00;36.30;;;;;;5024792;28;20589;-75
2023/06/24 09:40:21;;;;;;;2.40;2.03;;;46.10;36.00;;;;;;5028140;28;20576;-75
2023/06/24 09:43:00;;;;;;;3.23;2.50;;;46.10;36.10;;;;;;5011587;28;20635;-73
2023/06/24 09:45:28;;;;;;;3.00;2.23;;;46.20;35.70;;;;;;5029137;28;20630;-74
2023/06/24 09:47:55;;;;;;;3.30;2.00;;;46.20;35.50;;;;;;5012050;28;20584;-75
2023/06/24 09:50:21;;;;;;;3.30;2.47;;;46.20;35.20;;;;;;5029684;28;20611;-75
2023/06/24 09:52:48;;;;;;;2.50;1.63;;;46.20;34.80;;;;;;5028676;28;20581;-77
2023/06/24 09:55:16;;;;;;;3.60;1.83;;;46.20;34.70;;;;;;4991188;28;21200;-74
2023/06/24 09:57:49;;;;;;;3.20;1.70;;;46.30;34.80;;;;;;4994058;28;20593;-73
2023/06/24 10:00:18;;;;;;;3.70;2.00;;;46.40;34.10;;;;;;4996077;28;21164;-74
2023/06/24 10:02:45;;;;;;;3.10;1.87;;;46.30;34.60;;;;;;4979248;28;20651;-74
2023/06/24 10:05:13;;;;;;;3.43;2.10;;;46.20;33.80;;;;;;5021203;28;20640;-74
2023/06/24 10:07:40;;;;;;;4.70;2.33;;;46.20;34.00;;;;;;5032994;28;20612;-75
2023/06/24 10:10:06;;;;;;;3.83;2.63;;;46.10;33.50;;;;;;5015661;28;20595;-75
2023/06/24 10:12:35;;;;;;;2.20;1.97;;;46.00;33.20;;;;;;5014725;28;20587;-75
2023/06/24 10:15:01;;;;;;;3.63;2.23;;;45.90;33.00;;;;;;5015163;28;20635;-75
2023/06/24 10:17:27;;;;;;;2.00;1.53;;;45.90;33.50;;;;;;5015502;28;20653;-75
2023/06/24 10:19:55;;;;;;;2.80;1.40;;;45.80;33.30;;;;;;4995207;28;20182;-75
2023/06/24 10:22:25;;;;;;;2.33;1.90;;;45.50;33.30;;;;;;5012543;28;20171;-75
2023/06/24 10:24:52;;;;;;;3.20;1.60;;;45.30;33.20;;;;;;4994899;28;20616;-75
2023/06/24 10:27:23;;;;;;;2.70;2.00;;;45.10;33.40;;;;;;4979384;28;20925;-75
2023/06/24 10:29:51;;;;;;;2.37;2.10;;;45.00;33.70;;;;;;4994968;28;20628;-75
2023/06/24 10:32:19;;;;;;;2.23;1.87;;;44.60;33.30;;;;;;4978702;28;20585;-75
2023/06/24 10:34:46;;;;;;;2.83;2.30;;;44.30;33.90;;;;;;4994944;28;20640;-74
2023/06/24 10:37:24;;;;;;;2.60;1.97;;;44.10;33.30;;;;;;5011567;28;20655;-74
2023/06/24 10:39:54;;;;;;;2.90;1.70;;;43.80;33.20;;;;;;4998711;28;20578;-74
2023/06/24 10:42:29;;;;;;;2.53;1.70;;;43.50;32.80;;;;;;5013139;28;21205;-75
2023/06/24 10:45:02;;;;;;;3.47;2.53;;;43.10;32.70;;;;;;5032652;28;20983;-74
2023/06/24 10:47:29;;;;;;;2.20;1.90;;;42.90;33.40;;;;;;5032274;28;20572;-75
2023/06/24 10:49:55;;;;;;;2.63;1.93;;;42.70;34.10;;;;;;4996780;28;20675;-75
2023/06/24 10:52:22;;;;;;;2.17;1.40;;;42.50;33.80;;;;;;5029363;28;20584;-75
2023/06/24 10:54:50;;;;;;;1.97;1.37;;;42.50;32.50;;;;;;5007987;28;20674;-76
2023/06/24 10:57:24;;;;;;;2.93;1.43;;;42.30;31.70;;;;;;5032282;28;20591;-76
2023/06/24 10:59:51;;;;;;;3.10;2.10;;;42.10;31.20;;;;;;5051044;28;20572;-73
2023/06/24 11:02:19;;;;;;;2.30;1.70;;;42.00;31.00;;;;;;5016567;28;20623;-74
2023/06/24 11:04:46;;;;;;;2.37;1.47;;;41.80;31.40;;;;;;5031881;28;20919;-75
2023/06/24 11:07:12;;;;;;;3.37;1.77;;;41.80;31.70;;;;;;4997352;28;21549;-75
2023/06/24 11:09:38;;;;;;;3.20;1.43;;;41.70;31.60;;;;;;4996803;28;20679;-75
2023/06/24 11:12:04;;;;;;;4.83;1.60;;;41.60;31.50;;;;;;5013470;28;20584;-75
2023/06/24 11:14:29;;;;;;;2.47;1.57;;;41.50;32.30;;;;;;5031511;28;20634;-74
2023/06/24 11:16:55;;;;;;;3.27;1.90;;;41.40;32.00;;;;;;5014140;28;20624;-74
2023/06/24 11:19:21;;;;;;;3.07;1.63;;;41.30;33.00;;;;;;5031895;28;20201;-74
2023/06/24 11:21:46;;;;;;;2.53;1.50;;;41.20;32.30;;;;;;5031580;28;20217;-75
2023/06/24 11:24:12;;;;;;;2.40;1.30;;;41.20;32.10;;;;;;5013956;28;20224;-74
2023/06/24 11:26:38;;;;;;;2.50;1.40;;;41.10;31.80;;;;;;4997655;28;20702;-74
2023/06/24 11:29:13;;;;;;;3.20;1.87;;;41.00;32.30;;;;;;4997321;28;20272;-74
2023/06/24 11:31:39;;;;;;;2.27;1.57;;;40.80;32.00;;;;;;5031297;28;20169;-75
2023/06/24 11:34:04;;;;;;;2.47;1.60;;;40.70;32.10;;;;;;5013864;28;20710;-76
2023/06/24 11:36:31;;;;;;;3.60;1.63;;;40.70;32.40;;;;;;5032009;28;20660;-75
2023/06/24 11:38:57;;;;;;;2.20;1.50;;;40.60;32.30;;;;;;5014560;28;20178;-75
2023/06/24 11:41:25;;;;;;;2.20;1.50;;;40.50;32.40;;;;;;5012795;28;20987;-75
2023/06/24 11:43:51;;;;;;;2.20;1.40;;;40.30;32.60;;;;;;5014122;28;20643;-75
2023/06/24 11:46:27;;;;;;;3.60;2.10;;;40.20;32.60;;;;;;5031183;28;21147;-75
2023/06/24 11:49:09;;;;;;;3.67;2.67;;;40.10;32.50;;;;;;5031274;28;20580;-76
2023/06/24 11:51:36;;;;;;;3.33;2.43;;;39.90;32.60;;;;;;5012912;28;20627;-76
2023/06/24 11:54:06;;;;;;;5.30;2.30;;;39.70;32.70;;;;;;5013712;28;20693;-74
2023/06/24 11:56:38;;;;;;;2.40;1.83;;;39.70;33.00;;;;;;5031039;28;20600;-76
2023/06/24 11:59:05;;;;;;;2.97;1.50;;;39.50;32.80;;;;;;5013758;28;20631;-76
2023/06/24 12:01:32;;;;;;;2.90;1.90;;;39.50;33.50;;;;;;5030629;28;20576;-75
2023/06/24 12:04:01;;;;;;;2.43;1.63;;;39.40;33.40;;;;;;5013737;28;20599;-75
2023/06/24 12:06:26;;;;;;;4.03;2.00;;;39.20;33.40;;;;;;5031310;28;20607;-75
2023/06/24 12:08:52;;;;;;;3.40;1.80;;;39.00;33.10;;;;;;4997376;28;20596;-75
2023/06/24 12:11:18;;;;;;;2.13;1.57;;;38.80;33.70;;;;;;5031225;28;20165;-75
2023/06/24 12:13:44;;;;;;;4.27;2.03;;;38.70;33.80;;;;;;5031122;28;20541;-74
2023/06/24 12:16:10;;;;;;;3.17;1.73;;;38.60;33.90;;;;;;5013553;28;20627;-76
2023/06/24 12:18:35;;;;;;;3.10;2.27;;;38.40;34.10;;;;;;5030941;28;20170;-75
2023/06/24 12:21:01;;;;;;;4.77;2.40;;;38.30;34.10;;;;;;4996516;28;20264;-75
2023/06/24 12:23:27;;;;;;;2.90;2.07;;;38.20;34.30;;;;;;5012943;28;20174;-75
2023/06/24 12:25:52;;;;;;;6.03;2.40;;;38.20;34.50;;;;;;5031467;28;20431;-74
2023/06/24 12:28:18;;;;;;;4.70;2.70;;;38.10;34.60;;;;;;5030912;28;20161;-75
2023/06/24 12:30:44;;;;;;;3.50;2.30;;;38.00;35.10;;;;;;4993674;28;20276;-76
2023/06/24 12:33:09;;;;;;;2.77;2.20;;;38.00;35.00;;;;;;4996093;28;20260;-74
2023/06/24 12:35:35;;;;;;;3.63;2.10;;;37.90;35.20;;;;;;4978877;28;20260;-75
2023/06/24 12:38:01;;;;;;;3.70;2.30;;;37.80;35.00;;;;;;4994975;28;20621;-75
2023/06/24 12:40:27;;;;;;;2.83;1.90;;;37.70;34.90;;;;;;4981676;28;20269;-73
2023/06/24 12:42:52;;;;;;;3.23;2.30;;;37.50;34.90;;;;;;5008144;28;20192;-73
2023/06/24 12:45:18;;;;;;;3.30;2.20;;;37.30;34.60;;;;;;5030566;28;20247;-73
2023/06/24 12:47:44;;;;;;;2.90;1.77;;;37.10;34.60;;;;;;5013021;28;20182;-72